Avon, New York
Current Conditions -  °F | °C
As of 9:54 PM on Sunday 21 Dec 2014 (Local Time) from KROC Reporting Station
Overcast Overcast  
Wind Chill: 32°   Ceiling: 2900
Heat Index: 32°   Visibility: 10mi
Dew Point: 21°   Wind: 3mph
Humidity: 64%   Direction: 110°ESE
Pressure: 30.31"   Gusts: NA
Location:  42.91°N, 77.75°W
Report Text: KROC 220254Z 11003KT 10SM OVC029 00/M06 A3031 RMK AO2 SLP275 T00001061 58001
Loading
Personal Weather Stations






























Interactive Weather Map New forecast layout! Learn more

10-Day Weather Forecast

Advertisements
Track Severe Weather on mobile